sensor_id;sensor_type;location;lat;lon;timestamp;temperature;humidity
13697;DHT22;6920;50.080;8.226;2022-11-11T00:01:10;5.70;99.90
13697;DHT22;6920;50.080;8.226;2022-11-11T00:03:40;5.80;99.90
13697;DHT22;6920;50.080;8.226;2022-11-11T00:06:12;5.90;99.90
13697;DHT22;6920;50.080;8.226;2022-11-11T00:08:45;5.90;99.90
13697;DHT22;6920;50.080;8.226;2022-11-11T00:11:13;6.00;99.90
13697;DHT22;6920;50.080;8.226;2022-11-11T00:13:44;5.90;99.90
13697;DHT22;6920;50.080;8.226;2022-11-11T00:16:14;5.80;99.90
13697;DHT22;6920;50.080;8.226;2022-11-11T00:18:44;5.70;99.90
13697;DHT22;6920;50.080;8.226;2022-11-11T00:21:30;5.70;99.90
13697;DHT22;6920;50.080;8.226;2022-11-11T00:24:25;5.70;99.90
13697;DHT22;6920;50.080;8.226;2022-11-11T00:27:12;5.60;99.90
13697;DHT22;6920;50.080;8.226;2022-11-11T00:29:45;5.70;99.90
13697;DHT22;6920;50.080;8.226;2022-11-11T00:32:13;5.70;99.90
13697;DHT22;6920;50.080;8.226;2022-11-11T00:34:49;5.80;99.90
13697;DHT22;6920;50.080;8.226;2022-11-11T00:37:34;5.90;99.90
13697;DHT22;6920;50.080;8.226;2022-11-11T00:40:03;5.90;99.90
13697;DHT22;6920;50.080;8.226;2022-11-11T00:42:31;6.00;99.90
13697;DHT22;6920;50.080;8.226;2022-11-11T00:45:00;5.90;99.90
13697;DHT22;6920;50.080;8.226;2022-11-11T00:47:27;5.90;99.90
13697;DHT22;6920;50.080;8.226;2022-11-11T00:50:13;5.80;99.90
13697;DHT22;6920;50.080;8.226;2022-11-11T00:52:58;5.80;99.90
13697;DHT22;6920;50.080;8.226;2022-11-11T00:55:28;5.70;99.90
13697;DHT22;6920;50.080;8.226;2022-11-11T00:57:55;5.80;99.90
13697;DHT22;6920;50.080;8.226;2022-11-11T01:02:51;6.00;99.90
13697;DHT22;6920;50.080;8.226;2022-11-11T01:05:21;6.10;99.90
13697;DHT22;6920;50.080;8.226;2022-11-11T01:07:49;6.20;99.90
13697;DHT22;6920;50.080;8.226;2022-11-11T01:10:18;6.30;99.90
13697;DHT22;6920;50.080;8.226;2022-11-11T01:13:01;6.30;99.90
13697;DHT22;6920;50.080;8.226;2022-11-11T01:15:38;6.20;99.90
13697;DHT22;6920;50.080;8.226;2022-11-11T01:18:06;6.30;99.90
13697;DHT22;6920;50.080;8.226;2022-11-11T01:20:35;6.20;99.90
13697;DHT22;6920;50.080;8.226;2022-11-11T01:23:04;6.20;99.90
13697;DHT22;6920;50.080;8.226;2022-11-11T01:25:32;6.20;99.90
13697;DHT22;6920;50.080;8.226;2022-11-11T01:28:03;6.20;99.90
13697;DHT22;6920;50.080;8.226;2022-11-11T01:30:32;6.30;99.90
13697;DHT22;6920;50.080;8.226;2022-11-11T01:33:03;6.30;99.90
13697;DHT22;6920;50.080;8.226;2022-11-11T01:35:32;6.40;99.90
13697;DHT22;6920;50.080;8.226;2022-11-11T01:38:04;6.60;99.90
13697;DHT22;6920;50.080;8.226;2022-11-11T01:40:40;6.50;99.90
13697;DHT22;6920;50.080;8.226;2022-11-11T01:43:23;6.60;99.90
13697;DHT22;6920;50.080;8.226;2022-11-11T01:45:54;6.50;99.90
13697;DHT22;6920;50.080;8.226;2022-11-11T01:48:32;6.60;99.90
13697;DHT22;6920;50.080;8.226;2022-11-11T01:51:27;6.60;99.90
13697;DHT22;6920;50.080;8.226;2022-11-11T01:53:59;6.60;99.90
13697;DHT22;6920;50.080;8.226;2022-11-11T01:56:28;6.60;99.90
13697;DHT22;6920;50.080;8.226;2022-11-11T01:59:01;6.60;99.90
13697;DHT22;6920;50.080;8.226;2022-11-11T02:01:30;6.50;99.90
13697;DHT22;6920;50.080;8.226;2022-11-11T02:04:00;6.50;99.90
13697;DHT22;6920;50.080;8.226;2022-11-11T02:06:46;6.60;99.90
13697;DHT22;6920;50.080;8.226;2022-11-11T02:09:14;6.60;99.90
13697;DHT22;6920;50.080;8.226;2022-11-11T02:11:42;6.50;99.90
13697;DHT22;6920;50.080;8.226;2022-11-11T02:14:29;6.40;99.90
13697;DHT22;6920;50.080;8.226;2022-11-11T02:17:07;6.40;99.90
13697;DHT22;6920;50.080;8.226;2022-11-11T02:19:43;6.40;99.90
13697;DHT22;6920;50.080;8.226;2022-11-11T02:22:14;6.60;99.90
13697;DHT22;6920;50.080;8.226;2022-11-11T02:24:46;6.70;99.90
13697;DHT22;6920;50.080;8.226;2022-11-11T02:27:15;6.70;99.90
13697;DHT22;6920;50.080;8.226;2022-11-11T02:29:46;6.80;99.90
13697;DHT22;6920;50.080;8.226;2022-11-11T02:32:14;6.90;99.90
13697;DHT22;6920;50.080;8.226;2022-11-11T02:34:42;6.80;99.90
13697;DHT22;6920;50.080;8.226;2022-11-11T02:37:09;6.90;99.90
13697;DHT22;6920;50.080;8.226;2022-11-11T02:39:41;6.80;99.90
13697;DHT22;6920;50.080;8.226;2022-11-11T02:42:14;6.80;99.90
13697;DHT22;6920;50.080;8.226;2022-11-11T02:44:44;6.80;99.90
13697;DHT22;6920;50.080;8.226;2022-11-11T02:47:12;6.80;99.90
13697;DHT22;6920;50.080;8.226;2022-11-11T02:49:41;6.80;99.90
13697;DHT22;6920;50.080;8.226;2022-11-11T02:52:12;6.80;99.90
13697;DHT22;6920;50.080;8.226;2022-11-11T02:54:39;6.80;99.90
13697;DHT22;6920;50.080;8.226;2022-11-11T02:57:10;6.80;99.90
13697;DHT22;6920;50.080;8.226;2022-11-11T02:59:39;6.90;99.90
13697;DHT22;6920;50.080;8.226;2022-11-11T03:02:06;6.80;99.90
13697;DHT22;6920;50.080;8.226;2022-11-11T03:04:35;6.90;99.90
13697;DHT22;6920;50.080;8.226;2022-11-11T03:07:03;6.90;99.90
13697;DHT22;6920;50.080;8.226;2022-11-11T03:09:30;6.90;99.90
13697;DHT22;6920;50.080;8.226;2022-11-11T03:11:59;6.80;99.90
13697;DHT22;6920;50.080;8.226;2022-11-11T03:14:30;6.80;99.90
13697;DHT22;6920;50.080;8.226;2022-11-11T03:16:59;6.80;99.90
13697;DHT22;6920;50.080;8.226;2022-11-11T03:19:46;6.70;99.90
13697;DHT22;6920;50.080;8.226;2022-11-11T03:22:14;6.60;99.90
13697;DHT22;6920;50.080;8.226;2022-11-11T03:27:25;6.50;99.90
13697;DHT22;6920;50.080;8.226;2022-11-11T03:29:55;6.60;99.90
13697;DHT22;6920;50.080;8.226;2022-11-11T03:34:50;6.40;99.90
13697;DHT22;6920;50.080;8.226;2022-11-11T03:40:03;6.40;99.90
13697;DHT22;6920;50.080;8.226;2022-11-11T03:42:33;6.40;99.90
13697;DHT22;6920;50.080;8.226;2022-11-11T03:45:05;6.40;99.90
13697;DHT22;6920;50.080;8.226;2022-11-11T03:47:32;6.50;99.90
13697;DHT22;6920;50.080;8.226;2022-11-11T03:49:59;6.50;99.90
13697;DHT22;6920;50.080;8.226;2022-11-11T03:52:29;6.60;99.90
13697;DHT22;6920;50.080;8.226;2022-11-11T03:57:24;6.60;99.90
13697;DHT22;6920;50.080;8.226;2022-11-11T03:59:59;6.70;99.90
13697;DHT22;6920;50.080;8.226;2022-11-11T04:02:29;6.50;99.90
13697;DHT22;6920;50.080;8.226;2022-11-11T04:05:15;6.50;99.90
13697;DHT22;6920;50.080;8.226;2022-11-11T04:13:13;6.40;99.90
13697;DHT22;6920;50.080;8.226;2022-11-11T04:15:58;6.40;99.90
13697;DHT22;6920;50.080;8.226;2022-11-11T04:18:38;6.40;99.90
13697;DHT22;6920;50.080;8.226;2022-11-11T04:21:24;6.40;99.90
13697;DHT22;6920;50.080;8.226;2022-11-11T04:24:09;6.30;99.90
13697;DHT22;6920;50.080;8.226;2022-11-11T04:26:57;6.30;99.90
13697;DHT22;6920;50.080;8.226;2022-11-11T04:29:26;6.30;99.90
13697;DHT22;6920;50.080;8.226;2022-11-11T04:31:56;6.20;99.90
13697;DHT22;6920;50.080;8.226;2022-11-11T04:34:48;6.30;99.90
13697;DHT22;6920;50.080;8.226;2022-11-11T04:37:17;6.30;99.90
13697;DHT22;6920;50.080;8.226;2022-11-11T04:39:44;6.30;99.90
13697;DHT22;6920;50.080;8.226;2022-11-11T04:42:31;6.30;99.90
13697;DHT22;6920;50.080;8.226;2022-11-11T04:44:58;6.20;99.90
13697;DHT22;6920;50.080;8.226;2022-11-11T04:47:54;6.10;99.90
13697;DHT22;6920;50.080;8.226;2022-11-11T04:50:23;6.20;99.90
13697;DHT22;6920;50.080;8.226;2022-11-11T04:55:21;6.20;99.90
13697;DHT22;6920;50.080;8.226;2022-11-11T04:58:08;6.10;99.90
13697;DHT22;6920;50.080;8.226;2022-11-11T05:03:03;6.10;99.90
13697;DHT22;6920;50.080;8.226;2022-11-11T05:05:49;6.20;99.90
13697;DHT22;6920;50.080;8.226;2022-11-11T05:08:35;6.10;99.90
13697;DHT22;6920;50.080;8.226;2022-11-11T05:11:22;6.10;99.90
13697;DHT22;6920;50.080;8.226;2022-11-11T05:13:55;6.10;99.90
13697;DHT22;6920;50.080;8.226;2022-11-11T05:16:42;6.10;99.90
13697;DHT22;6920;50.080;8.226;2022-11-11T05:19:28;6.10;99.90
13697;DHT22;6920;50.080;8.226;2022-11-11T05:22:20;6.20;99.90
13697;DHT22;6920;50.080;8.226;2022-11-11T05:24:50;6.10;99.90
13697;DHT22;6920;50.080;8.226;2022-11-11T05:27:34;6.20;99.90
13697;DHT22;6920;50.080;8.226;2022-11-11T05:30:02;6.20;99.90
13697;DHT22;6920;50.080;8.226;2022-11-11T05:32:33;6.10;99.90
13697;DHT22;6920;50.080;8.226;2022-11-11T05:35:01;6.10;99.90
13697;DHT22;6920;50.080;8.226;2022-11-11T05:37:30;6.20;99.90
13697;DHT22;6920;50.080;8.226;2022-11-11T05:39:58;6.10;99.90
13697;DHT22;6920;50.080;8.226;2022-11-11T05:47:23;6.00;99.90
13697;DHT22;6920;50.080;8.226;2022-11-11T05:49:50;6.00;99.90
13697;DHT22;6920;50.080;8.226;2022-11-11T05:54:51;6.00;99.90
13697;DHT22;6920;50.080;8.226;2022-11-11T05:57:19;6.00;99.90
13697;DHT22;6920;50.080;8.226;2022-11-11T05:59:48;6.00;99.90
13697;DHT22;6920;50.080;8.226;2022-11-11T06:02:16;6.00;99.90
13697;DHT22;6920;50.080;8.226;2022-11-11T06:04:45;5.90;99.90
13697;DHT22;6920;50.080;8.226;2022-11-11T06:07:14;5.90;99.90
13697;DHT22;6920;50.080;8.226;2022-11-11T06:09:42;6.10;99.90
13697;DHT22;6920;50.080;8.226;2022-11-11T06:12:11;6.10;99.90
13697;DHT22;6920;50.080;8.226;2022-11-11T06:14:41;5.90;99.90
13697;DHT22;6920;50.080;8.226;2022-11-11T06:17:09;5.80;99.90
13697;DHT22;6920;50.080;8.226;2022-11-11T06:19:38;5.70;99.90
13697;DHT22;6920;50.080;8.226;2022-11-11T06:22:05;5.70;99.90
13697;DHT22;6920;50.080;8.226;2022-11-11T06:24:33;5.60;99.90
13697;DHT22;6920;50.080;8.226;2022-11-11T06:27:01;5.70;99.90
13697;DHT22;6920;50.080;8.226;2022-11-11T06:29:30;5.70;99.90
13697;DHT22;6920;50.080;8.226;2022-11-11T06:31:57;5.80;99.90
13697;DHT22;6920;50.080;8.226;2022-11-11T06:34:24;5.70;99.90
13697;DHT22;6920;50.080;8.226;2022-11-11T06:36:53;5.80;99.90
13697;DHT22;6920;50.080;8.226;2022-11-11T06:39:20;5.80;99.90
13697;DHT22;6920;50.080;8.226;2022-11-11T06:41:47;5.80;99.90
13697;DHT22;6920;50.080;8.226;2022-11-11T06:44:15;5.70;99.90
13697;DHT22;6920;50.080;8.226;2022-11-11T06:46:45;5.70;99.90
13697;DHT22;6920;50.080;8.226;2022-11-11T06:54:08;5.60;99.90
13697;DHT22;6920;50.080;8.226;2022-11-11T06:56:35;5.70;99.90
13697;DHT22;6920;50.080;8.226;2022-11-11T06:59:04;5.70;99.90
13697;DHT22;6920;50.080;8.226;2022-11-11T07:01:32;5.70;99.90
13697;DHT22;6920;50.080;8.226;2022-11-11T07:04:04;5.80;99.90
13697;DHT22;6920;50.080;8.226;2022-11-11T07:06:32;5.60;99.90
13697;DHT22;6920;50.080;8.226;2022-11-11T07:09:02;5.80;99.90
13697;DHT22;6920;50.080;8.226;2022-11-11T07:11:34;5.80;99.90
13697;DHT22;6920;50.080;8.226;2022-11-11T07:14:16;5.80;99.90
13697;DHT22;6920;50.080;8.226;2022-11-11T07:16:44;5.80;99.90
13697;DHT22;6920;50.080;8.226;2022-11-11T07:19:13;5.90;99.90
13697;DHT22;6920;50.080;8.226;2022-11-11T07:21:41;5.80;99.90
13697;DHT22;6920;50.080;8.226;2022-11-11T07:24:10;5.80;99.90
13697;DHT22;6920;50.080;8.226;2022-11-11T07:26:37;5.80;99.90
13697;DHT22;6920;50.080;8.226;2022-11-11T07:29:04;5.80;99.90
13697;DHT22;6920;50.080;8.226;2022-11-11T07:31:33;5.60;99.90
13697;DHT22;6920;50.080;8.226;2022-11-11T07:34:00;5.70;99.90
13697;DHT22;6920;50.080;8.226;2022-11-11T07:36:31;5.80;99.90
13697;DHT22;6920;50.080;8.226;2022-11-11T07:43:53;5.90;99.90
13697;DHT22;6920;50.080;8.226;2022-11-11T07:46:22;6.10;99.90
13697;DHT22;6920;50.080;8.226;2022-11-11T07:48:50;6.30;99.90
13697;DHT22;6920;50.080;8.226;2022-11-11T07:51:17;6.10;99.90
13697;DHT22;6920;50.080;8.226;2022-11-11T07:53:47;6.10;99.90
13697;DHT22;6920;50.080;8.226;2022-11-11T07:56:15;6.20;99.90
13697;DHT22;6920;50.080;8.226;2022-11-11T07:58:42;6.20;99.90
13697;DHT22;6920;50.080;8.226;2022-11-11T08:01:11;6.40;99.90
13697;DHT22;6920;50.080;8.226;2022-11-11T08:06:16;6.50;99.90
13697;DHT22;6920;50.080;8.226;2022-11-11T08:08:48;6.40;99.90
13697;DHT22;6920;50.080;8.226;2022-11-11T08:11:17;6.40;99.90
13697;DHT22;6920;50.080;8.226;2022-11-11T08:14:05;6.50;99.90
13697;DHT22;6920;50.080;8.226;2022-11-11T08:16:31;6.60;99.90
13697;DHT22;6920;50.080;8.226;2022-11-11T08:21:26;6.60;99.90
13697;DHT22;6920;50.080;8.226;2022-11-11T08:23:56;6.70;99.90
13697;DHT22;6920;50.080;8.226;2022-11-11T08:26:25;6.50;99.90
13697;DHT22;6920;50.080;8.226;2022-11-11T08:33:47;6.50;99.90
13697;DHT22;6920;50.080;8.226;2022-11-11T08:36:16;6.90;99.90
13697;DHT22;6920;50.080;8.226;2022-11-11T08:38:44;7.00;99.90
13697;DHT22;6920;50.080;8.226;2022-11-11T08:41:14;6.90;99.90
13697;DHT22;6920;50.080;8.226;2022-11-11T08:43:44;7.00;99.90
13697;DHT22;6920;50.080;8.226;2022-11-11T08:46:11;7.10;99.90
13697;DHT22;6920;50.080;8.226;2022-11-11T08:48:41;7.10;99.90
13697;DHT22;6920;50.080;8.226;2022-11-11T08:53:35;7.20;99.90
13697;DHT22;6920;50.080;8.226;2022-11-11T08:56:03;7.10;99.90
13697;DHT22;6920;50.080;8.226;2022-11-11T08:58:32;7.20;99.90
13697;DHT22;6920;50.080;8.226;2022-11-11T09:01:00;7.20;99.90
13697;DHT22;6920;50.080;8.226;2022-11-11T09:03:29;7.30;99.90
13697;DHT22;6920;50.080;8.226;2022-11-11T09:05:56;7.40;99.90
13697;DHT22;6920;50.080;8.226;2022-11-11T09:08:25;7.40;99.90
13697;DHT22;6920;50.080;8.226;2022-11-11T09:10:56;7.50;99.90
13697;DHT22;6920;50.080;8.226;2022-11-11T09:13:23;7.50;99.90
13697;DHT22;6920;50.080;8.226;2022-11-11T09:15:53;7.60;99.90
13697;DHT22;6920;50.080;8.226;2022-11-11T09:18:21;7.50;99.90
13697;DHT22;6920;50.080;8.226;2022-11-11T09:20:50;7.60;99.90
13697;DHT22;6920;50.080;8.226;2022-11-11T09:23:17;7.70;99.90
13697;DHT22;6920;50.080;8.226;2022-11-11T09:25:44;7.70;99.90
13697;DHT22;6920;50.080;8.226;2022-11-11T09:28:13;7.70;99.90
13697;DHT22;6920;50.080;8.226;2022-11-11T09:30:40;7.80;99.90
13697;DHT22;6920;50.080;8.226;2022-11-11T09:33:10;7.90;99.90
13697;DHT22;6920;50.080;8.226;2022-11-11T09:35:40;7.80;99.90
13697;DHT22;6920;50.080;8.226;2022-11-11T09:38:08;7.80;99.90
13697;DHT22;6920;50.080;8.226;2022-11-11T09:40:47;7.90;99.90
13697;DHT22;6920;50.080;8.226;2022-11-11T09:43:23;7.80;99.90
13697;DHT22;6920;50.080;8.226;2022-11-11T09:46:05;7.80;99.90
13697;DHT22;6920;50.080;8.226;2022-11-11T09:51:39;8.00;99.90
13697;DHT22;6920;50.080;8.226;2022-11-11T09:54:15;7.80;99.90
13697;DHT22;6920;50.080;8.226;2022-11-11T09:56:44;7.80;99.90
13697;DHT22;6920;50.080;8.226;2022-11-11T09:59:14;7.90;99.90
13697;DHT22;6920;50.080;8.226;2022-11-11T10:01:45;8.00;99.90
13697;DHT22;6920;50.080;8.226;2022-11-11T10:04:27;7.90;99.90
13697;DHT22;6920;50.080;8.226;2022-11-11T10:07:00;7.90;99.90
13697;DHT22;6920;50.080;8.226;2022-11-11T10:09:40;7.70;99.90
13697;DHT22;6920;50.080;8.226;2022-11-11T10:12:12;7.70;99.90
13697;DHT22;6920;50.080;8.226;2022-11-11T10:14:42;7.70;99.90
13697;DHT22;6920;50.080;8.226;2022-11-11T10:17:21;7.80;99.90
13697;DHT22;6920;50.080;8.226;2022-11-11T10:20:02;7.70;99.90
13697;DHT22;6920;50.080;8.226;2022-11-11T10:22:34;7.90;99.90
13697;DHT22;6920;50.080;8.226;2022-11-11T10:25:24;7.90;99.90
13697;DHT22;6920;50.080;8.226;2022-11-11T10:30:22;8.00;99.90
13697;DHT22;6920;50.080;8.226;2022-11-11T10:35:22;8.20;99.90
13697;DHT22;6920;50.080;8.226;2022-11-11T10:38:01;8.30;99.90
13697;DHT22;6920;50.080;8.226;2022-11-11T10:40:38;8.50;99.90
13697;DHT22;6920;50.080;8.226;2022-11-11T10:43:16;8.50;99.90
13697;DHT22;6920;50.080;8.226;2022-11-11T10:45:53;8.40;99.90
13697;DHT22;6920;50.080;8.226;2022-11-11T10:48:42;8.50;99.90
13697;DHT22;6920;50.080;8.226;2022-11-11T10:51:13;8.50;99.90
13697;DHT22;6920;50.080;8.226;2022-11-11T10:53:51;8.60;99.90
13697;DHT22;6920;50.080;8.226;2022-11-11T10:56:23;8.60;99.90
13697;DHT22;6920;50.080;8.226;2022-11-11T10:58:57;8.50;99.90
13697;DHT22;6920;50.080;8.226;2022-11-11T11:01:30;8.80;99.90
13697;DHT22;6920;50.080;8.226;2022-11-11T11:04:03;8.90;99.90
13697;DHT22;6920;50.080;8.226;2022-11-11T11:06:36;8.90;99.90
13697;DHT22;6920;50.080;8.226;2022-11-11T11:09:12;8.90;99.90
13697;DHT22;6920;50.080;8.226;2022-11-11T11:11:48;8.90;99.90
13697;DHT22;6920;50.080;8.226;2022-11-11T11:14:20;9.00;99.90
13697;DHT22;6920;50.080;8.226;2022-11-11T11:16:51;8.90;99.90
13697;DHT22;6920;50.080;8.226;2022-11-11T11:19:22;8.80;99.90
13697;DHT22;6920;50.080;8.226;2022-11-11T11:21:54;8.90;99.90
13697;DHT22;6920;50.080;8.226;2022-11-11T11:24:27;8.90;99.90
13697;DHT22;6920;50.080;8.226;2022-11-11T11:26:58;9.10;99.90
13697;DHT22;6920;50.080;8.226;2022-11-11T11:29:31;9.20;99.90
13697;DHT22;6920;50.080;8.226;2022-11-11T11:32:14;9.20;99.90
13697;DHT22;6920;50.080;8.226;2022-11-11T11:34:44;9.20;99.90
13697;DHT22;6920;50.080;8.226;2022-11-11T11:37:14;9.30;99.90
13697;DHT22;6920;50.080;8.226;2022-11-11T11:39:43;9.40;99.90
13697;DHT22;6920;50.080;8.226;2022-11-11T11:42:27;9.40;99.90
13697;DHT22;6920;50.080;8.226;2022-11-11T11:44:55;9.50;99.90
13697;DHT22;6920;50.080;8.226;2022-11-11T11:47:41;9.70;99.90
13697;DHT22;6920;50.080;8.226;2022-11-11T11:50:30;9.90;99.90
13697;DHT22;6920;50.080;8.226;2022-11-11T11:53:19;10.00;99.90
13697;DHT22;6920;50.080;8.226;2022-11-11T11:55:56;10.10;99.90
13697;DHT22;6920;50.080;8.226;2022-11-11T11:58:36;10.10;99.90
13697;DHT22;6920;50.080;8.226;2022-11-11T12:01:10;10.30;99.90
13697;DHT22;6920;50.080;8.226;2022-11-11T12:04:16;10.40;99.90
13697;DHT22;6920;50.080;8.226;2022-11-11T12:06:56;10.10;99.90
13697;DHT22;6920;50.080;8.226;2022-11-11T12:09:51;10.30;99.90
13697;DHT22;6920;50.080;8.226;2022-11-11T12:12:37;10.10;99.90
13697;DHT22;6920;50.080;8.226;2022-11-11T12:15:30;9.80;99.90
13697;DHT22;6920;50.080;8.226;2022-11-11T12:18:17;9.90;99.90
13697;DHT22;6920;50.080;8.226;2022-11-11T12:20:50;9.90;99.90
13697;DHT22;6920;50.080;8.226;2022-11-11T12:23:46;9.60;99.90
13697;DHT22;6920;50.080;8.226;2022-11-11T12:26:22;9.60;99.90
13697;DHT22;6920;50.080;8.226;2022-11-11T12:29:08;9.50;99.90
13697;DHT22;6920;50.080;8.226;2022-11-11T12:31:52;9.50;99.90
13697;DHT22;6920;50.080;8.226;2022-11-11T12:34:40;9.60;99.90
13697;DHT22;6920;50.080;8.226;2022-11-11T12:37:20;9.60;99.90
13697;DHT22;6920;50.080;8.226;2022-11-11T12:40:04;9.50;99.90
13697;DHT22;6920;50.080;8.226;2022-11-11T12:42:45;9.40;99.90
13697;DHT22;6920;50.080;8.226;2022-11-11T12:45:23;9.30;99.90
13697;DHT22;6920;50.080;8.226;2022-11-11T12:48:04;9.50;99.90
13697;DHT22;6920;50.080;8.226;2022-11-11T12:50:39;9.30;99.90
13697;DHT22;6920;50.080;8.226;2022-11-11T12:53:19;9.30;99.90
13697;DHT22;6920;50.080;8.226;2022-11-11T12:56:03;9.30;99.90
13697;DHT22;6920;50.080;8.226;2022-11-11T12:58:39;9.20;99.90
13697;DHT22;6920;50.080;8.226;2022-11-11T13:01:19;9.30;99.90
13697;DHT22;6920;50.080;8.226;2022-11-11T13:04:33;9.30;99.90
13697;DHT22;6920;50.080;8.226;2022-11-11T13:07:53;9.40;99.90
13697;DHT22;6920;50.080;8.226;2022-11-11T13:10:37;9.40;99.90
13697;DHT22;6920;50.080;8.226;2022-11-11T13:13:21;9.40;99.90
13697;DHT22;6920;50.080;8.226;2022-11-11T13:15:52;9.40;99.90
13697;DHT22;6920;50.080;8.226;2022-11-11T13:18:30;9.40;99.90
13697;DHT22;6920;50.080;8.226;2022-11-11T13:21:06;9.30;99.90
13697;DHT22;6920;50.080;8.226;2022-11-11T13:23:39;9.40;99.90
13697;DHT22;6920;50.080;8.226;2022-11-11T13:26:27;9.40;99.90
13697;DHT22;6920;50.080;8.226;2022-11-11T13:29:49;9.20;99.90
13697;DHT22;6920;50.080;8.226;2022-11-11T13:32:25;9.30;99.90
13697;DHT22;6920;50.080;8.226;2022-11-11T13:34:55;9.30;99.90
13697;DHT22;6920;50.080;8.226;2022-11-11T13:37:29;9.30;99.90
13697;DHT22;6920;50.080;8.226;2022-11-11T13:40:03;9.40;99.90
13697;DHT22;6920;50.080;8.226;2022-11-11T13:42:38;9.50;99.90
13697;DHT22;6920;50.080;8.226;2022-11-11T13:45:25;9.50;99.90
13697;DHT22;6920;50.080;8.226;2022-11-11T13:47:56;9.40;99.90
13697;DHT22;6920;50.080;8.226;2022-11-11T13:50:30;9.40;99.90
13697;DHT22;6920;50.080;8.226;2022-11-11T13:53:02;9.40;99.90
13697;DHT22;6920;50.080;8.226;2022-11-11T13:55:35;9.40;99.90
13697;DHT22;6920;50.080;8.226;2022-11-11T13:58:06;9.60;99.90
13697;DHT22;6920;50.080;8.226;2022-11-11T14:00:38;9.60;99.90
13697;DHT22;6920;50.080;8.226;2022-11-11T14:03:35;9.60;99.90
13697;DHT22;6920;50.080;8.226;2022-11-11T14:12:38;9.40;99.90
13697;DHT22;6920;50.080;8.226;2022-11-11T14:15:35;9.40;99.90
13697;DHT22;6920;50.080;8.226;2022-11-11T14:18:38;9.40;99.90
13697;DHT22;6920;50.080;8.226;2022-11-11T14:21:09;9.50;99.90
13697;DHT22;6920;50.080;8.226;2022-11-11T14:23:41;9.50;99.90
13697;DHT22;6920;50.080;8.226;2022-11-11T14:26:31;9.50;99.90
13697;DHT22;6920;50.080;8.226;2022-11-11T14:29:03;9.40;99.90
13697;DHT22;6920;50.080;8.226;2022-11-11T14:31:48;9.50;99.90
13697;DHT22;6920;50.080;8.226;2022-11-11T14:37:24;9.50;99.90
13697;DHT22;6920;50.080;8.226;2022-11-11T14:39:56;9.40;99.90
13697;DHT22;6920;50.080;8.226;2022-11-11T14:42:44;9.40;99.90
13697;DHT22;6920;50.080;8.226;2022-11-11T14:48:52;9.10;99.90
13697;DHT22;6920;50.080;8.226;2022-11-11T14:51:51;9.10;99.90
13697;DHT22;6920;50.080;8.226;2022-11-11T14:54:47;9.20;99.90
13697;DHT22;6920;50.080;8.226;2022-11-11T14:57:22;9.20;99.90
13697;DHT22;6920;50.080;8.226;2022-11-11T14:59:53;9.20;99.90
13697;DHT22;6920;50.080;8.226;2022-11-11T15:02:29;9.10;99.90
13697;DHT22;6920;50.080;8.226;2022-11-11T15:05:26;9.00;99.90
13697;DHT22;6920;50.080;8.226;2022-11-11T15:08:05;9.00;99.90
13697;DHT22;6920;50.080;8.226;2022-11-11T15:10:57;9.00;99.90
13697;DHT22;6920;50.080;8.226;2022-11-11T15:13:58;9.10;99.90
13697;DHT22;6920;50.080;8.226;2022-11-11T15:16:42;8.90;99.90
13697;DHT22;6920;50.080;8.226;2022-11-11T15:19:24;9.00;99.90
13697;DHT22;6920;50.080;8.226;2022-11-11T15:24:31;9.00;99.90
13697;DHT22;6920;50.080;8.226;2022-11-11T15:27:06;9.00;99.90
13697;DHT22;6920;50.080;8.226;2022-11-11T15:29:49;9.00;99.90
13697;DHT22;6920;50.080;8.226;2022-11-11T15:32:28;9.00;99.90
13697;DHT22;6920;50.080;8.226;2022-11-11T15:35:07;9.00;99.90
13697;DHT22;6920;50.080;8.226;2022-11-11T15:37:36;9.00;99.90
13697;DHT22;6920;50.080;8.226;2022-11-11T15:40:06;9.10;99.90
13697;DHT22;6920;50.080;8.226;2022-11-11T15:42:38;9.00;99.90
13697;DHT22;6920;50.080;8.226;2022-11-11T15:45:19;9.00;99.90
13697;DHT22;6920;50.080;8.226;2022-11-11T15:47:48;9.00;99.90
13697;DHT22;6920;50.080;8.226;2022-11-11T15:50:26;8.90;99.90
13697;DHT22;6920;50.080;8.226;2022-11-11T15:52:57;8.90;99.90
13697;DHT22;6920;50.080;8.226;2022-11-11T15:55:28;8.80;99.90
13697;DHT22;6920;50.080;8.226;2022-11-11T15:58:10;8.80;99.90
13697;DHT22;6920;50.080;8.226;2022-11-11T16:00:43;8.70;99.90
13697;DHT22;6920;50.080;8.226;2022-11-11T16:03:14;8.60;99.90
13697;DHT22;6920;50.080;8.226;2022-11-11T16:05:42;8.60;99.90
13697;DHT22;6920;50.080;8.226;2022-11-11T16:08:17;8.60;99.90
13697;DHT22;6920;50.080;8.226;2022-11-11T16:10:59;8.60;99.90
13697;DHT22;6920;50.080;8.226;2022-11-11T16:13:31;8.60;99.90
13697;DHT22;6920;50.080;8.226;2022-11-11T16:16:03;8.60;99.90
13697;DHT22;6920;50.080;8.226;2022-11-11T16:18:37;8.60;99.90
13697;DHT22;6920;50.080;8.226;2022-11-11T16:21:07;8.50;99.90
13697;DHT22;6920;50.080;8.226;2022-11-11T16:23:38;8.50;99.90
13697;DHT22;6920;50.080;8.226;2022-11-11T16:26:09;8.40;99.90
13697;DHT22;6920;50.080;8.226;2022-11-11T16:28:41;8.40;99.90
13697;DHT22;6920;50.080;8.226;2022-11-11T16:31:28;8.40;99.90
13697;DHT22;6920;50.080;8.226;2022-11-11T16:33:59;8.30;99.90
13697;DHT22;6920;50.080;8.226;2022-11-11T16:39:12;8.30;99.90
13697;DHT22;6920;50.080;8.226;2022-11-11T16:41:41;8.40;99.90
13697;DHT22;6920;50.080;8.226;2022-11-11T16:44:36;8.50;99.90
13697;DHT22;6920;50.080;8.226;2022-11-11T16:47:39;8.50;99.90
13697;DHT22;6920;50.080;8.226;2022-11-11T16:50:20;8.50;99.90
13697;DHT22;6920;50.080;8.226;2022-11-11T16:52:52;8.50;99.90
13697;DHT22;6920;50.080;8.226;2022-11-11T16:55:26;8.60;99.90
13697;DHT22;6920;50.080;8.226;2022-11-11T16:58:01;8.50;99.90
13697;DHT22;6920;50.080;8.226;2022-11-11T17:03:10;8.50;99.90
13697;DHT22;6920;50.080;8.226;2022-11-11T17:05:50;8.50;99.90
13697;DHT22;6920;50.080;8.226;2022-11-11T17:08:29;8.40;99.90
13697;DHT22;6920;50.080;8.226;2022-11-11T17:10:58;8.30;99.90
13697;DHT22;6920;50.080;8.226;2022-11-11T17:13:29;8.40;99.90
13697;DHT22;6920;50.080;8.226;2022-11-11T17:16:00;8.60;99.90
13697;DHT22;6920;50.080;8.226;2022-11-11T17:18:32;8.50;99.90
13697;DHT22;6920;50.080;8.226;2022-11-11T17:21:04;8.50;99.90
13697;DHT22;6920;50.080;8.226;2022-11-11T17:23:35;8.60;99.90
13697;DHT22;6920;50.080;8.226;2022-11-11T17:26:08;8.60;99.90
13697;DHT22;6920;50.080;8.226;2022-11-11T17:28:38;8.60;99.90
13697;DHT22;6920;50.080;8.226;2022-11-11T17:31:07;8.50;99.90
13697;DHT22;6920;50.080;8.226;2022-11-11T17:33:35;8.50;99.90
13697;DHT22;6920;50.080;8.226;2022-11-11T17:36:04;8.50;99.90
13697;DHT22;6920;50.080;8.226;2022-11-11T17:38:36;8.50;99.90
13697;DHT22;6920;50.080;8.226;2022-11-11T17:41:05;8.60;99.90
13697;DHT22;6920;50.080;8.226;2022-11-11T17:43:32;8.60;99.90
13697;DHT22;6920;50.080;8.226;2022-11-11T17:46:03;8.60;99.90
13697;DHT22;6920;50.080;8.226;2022-11-11T17:48:30;8.50;99.90
13697;DHT22;6920;50.080;8.226;2022-11-11T17:50:58;8.50;99.90
13697;DHT22;6920;50.080;8.226;2022-11-11T17:53:33;8.60;99.90
13697;DHT22;6920;50.080;8.226;2022-11-11T17:56:01;8.60;99.90
13697;DHT22;6920;50.080;8.226;2022-11-11T17:58:29;8.60;99.90
13697;DHT22;6920;50.080;8.226;2022-11-11T18:01:05;8.60;99.90
13697;DHT22;6920;50.080;8.226;2022-11-11T18:03:34;8.60;99.90
13697;DHT22;6920;50.080;8.226;2022-11-11T18:06:01;8.60;99.90
13697;DHT22;6920;50.080;8.226;2022-11-11T18:08:28;8.60;99.90
13697;DHT22;6920;50.080;8.226;2022-11-11T18:10:58;8.70;99.90